sensor_id;sensor_type;location;lat;lon;timestamp;temperature;humidity
7155;DHT22;3619;53.784;10.440;2023-07-13T00:01:51;16.40;99.90
7155;DHT22;3619;53.784;10.440;2023-07-13T00:04:19;16.30;99.90
7155;DHT22;3619;53.784;10.440;2023-07-13T00:06:47;16.30;99.90
7155;DHT22;3619;53.784;10.440;2023-07-13T00:09:14;16.20;99.90
7155;DHT22;3619;53.784;10.440;2023-07-13T00:11:43;16.20;99.90
7155;DHT22;3619;53.784;10.440;2023-07-13T00:14:13;16.20;99.90
7155;DHT22;3619;53.784;10.440;2023-07-13T00:16:41;16.20;99.90
7155;DHT22;3619;53.784;10.440;2023-07-13T00:19:09;16.20;99.90
7155;DHT22;3619;53.784;10.440;2023-07-13T00:21:37;16.20;99.90
7155;DHT22;3619;53.784;10.440;2023-07-13T00:24:04;16.20;99.90
7155;DHT22;3619;53.784;10.440;2023-07-13T00:26:31;16.20;99.90
7155;DHT22;3619;53.784;10.440;2023-07-13T00:28:59;16.20;99.90
7155;DHT22;3619;53.784;10.440;2023-07-13T00:31:28;16.20;99.90
7155;DHT22;3619;53.784;10.440;2023-07-13T00:33:55;16.20;99.90
7155;DHT22;3619;53.784;10.440;2023-07-13T00:36:22;16.20;99.90
7155;DHT22;3619;53.784;10.440;2023-07-13T00:38:49;16.10;99.90
7155;DHT22;3619;53.784;10.440;2023-07-13T00:41:15;16.10;99.90
7155;DHT22;3619;53.784;10.440;2023-07-13T00:43:42;16.10;99.90
7155;DHT22;3619;53.784;10.440;2023-07-13T00:46:16;16.00;99.90
7155;DHT22;3619;53.784;10.440;2023-07-13T00:48:46;16.00;99.90
7155;DHT22;3619;53.784;10.440;2023-07-13T00:51:19;15.90;99.90
7155;DHT22;3619;53.784;10.440;2023-07-13T00:53:47;15.90;99.90
7155;DHT22;3619;53.784;10.440;2023-07-13T00:56:14;15.80;99.90
7155;DHT22;3619;53.784;10.440;2023-07-13T00:58:41;15.70;99.90
7155;DHT22;3619;53.784;10.440;2023-07-13T01:01:08;15.70;99.90
7155;DHT22;3619;53.784;10.440;2023-07-13T01:03:35;15.70;99.90
7155;DHT22;3619;53.784;10.440;2023-07-13T01:06:04;15.60;99.90
7155;DHT22;3619;53.784;10.440;2023-07-13T01:08:31;15.60;99.90
7155;DHT22;3619;53.784;10.440;2023-07-13T01:10:58;15.50;99.90
7155;DHT22;3619;53.784;10.440;2023-07-13T01:13:25;15.50;99.90
7155;DHT22;3619;53.784;10.440;2023-07-13T01:15:54;15.50;99.90
7155;DHT22;3619;53.784;10.440;2023-07-13T01:18:22;15.40;99.90
7155;DHT22;3619;53.784;10.440;2023-07-13T01:20:55;15.40;99.90
7155;DHT22;3619;53.784;10.440;2023-07-13T01:23:22;15.40;99.90
7155;DHT22;3619;53.784;10.440;2023-07-13T01:25:50;15.40;99.90
7155;DHT22;3619;53.784;10.440;2023-07-13T01:28:18;15.30;99.90
7155;DHT22;3619;53.784;10.440;2023-07-13T01:30:46;15.30;99.90
7155;DHT22;3619;53.784;10.440;2023-07-13T01:33:14;15.20;99.90
7155;DHT22;3619;53.784;10.440;2023-07-13T01:35:42;15.20;99.90
7155;DHT22;3619;53.784;10.440;2023-07-13T01:38:11;15.20;99.90
7155;DHT22;3619;53.784;10.440;2023-07-13T01:40:38;15.20;99.90
7155;DHT22;3619;53.784;10.440;2023-07-13T01:43:05;15.20;99.90
7155;DHT22;3619;53.784;10.440;2023-07-13T01:45:32;15.10;99.90
7155;DHT22;3619;53.784;10.440;2023-07-13T01:47:59;15.10;99.90
7155;DHT22;3619;53.784;10.440;2023-07-13T01:50:26;15.10;99.90
7155;DHT22;3619;53.784;10.440;2023-07-13T01:52:53;15.10;99.90
7155;DHT22;3619;53.784;10.440;2023-07-13T01:55:22;15.10;99.90
7155;DHT22;3619;53.784;10.440;2023-07-13T01:57:49;15.00;99.90
7155;DHT22;3619;53.784;10.440;2023-07-13T02:00:18;15.10;99.90
7155;DHT22;3619;53.784;10.440;2023-07-13T02:02:44;15.00;99.90
7155;DHT22;3619;53.784;10.440;2023-07-13T02:05:13;15.00;99.90
7155;DHT22;3619;53.784;10.440;2023-07-13T02:07:40;15.00;99.90
7155;DHT22;3619;53.784;10.440;2023-07-13T02:10:08;14.90;99.90
7155;DHT22;3619;53.784;10.440;2023-07-13T02:12:36;14.90;99.90
7155;DHT22;3619;53.784;10.440;2023-07-13T02:15:05;14.90;99.90
7155;DHT22;3619;53.784;10.440;2023-07-13T02:17:33;14.80;99.90
7155;DHT22;3619;53.784;10.440;2023-07-13T02:20:00;14.80;99.90
7155;DHT22;3619;53.784;10.440;2023-07-13T02:22:28;14.80;99.90
7155;DHT22;3619;53.784;10.440;2023-07-13T02:24:57;14.80;99.90
7155;DHT22;3619;53.784;10.440;2023-07-13T02:27:25;14.70;99.90
7155;DHT22;3619;53.784;10.440;2023-07-13T02:29:53;14.70;99.90
7155;DHT22;3619;53.784;10.440;2023-07-13T02:32:20;14.70;99.90
7155;DHT22;3619;53.784;10.440;2023-07-13T02:34:47;14.70;99.90
7155;DHT22;3619;53.784;10.440;2023-07-13T02:37:14;14.60;99.90
7155;DHT22;3619;53.784;10.440;2023-07-13T02:39:41;14.60;99.90
7155;DHT22;3619;53.784;10.440;2023-07-13T02:42:08;14.60;99.90
7155;DHT22;3619;53.784;10.440;2023-07-13T02:44:35;14.60;99.90
7155;DHT22;3619;53.784;10.440;2023-07-13T02:47:03;14.60;99.90
7155;DHT22;3619;53.784;10.440;2023-07-13T02:49:30;14.50;99.90
7155;DHT22;3619;53.784;10.440;2023-07-13T02:51:57;14.50;99.90
7155;DHT22;3619;53.784;10.440;2023-07-13T02:54:24;14.60;99.90
7155;DHT22;3619;53.784;10.440;2023-07-13T02:56:51;14.50;99.90
7155;DHT22;3619;53.784;10.440;2023-07-13T02:59:18;14.50;99.90
7155;DHT22;3619;53.784;10.440;2023-07-13T03:01:45;14.50;99.90
7155;DHT22;3619;53.784;10.440;2023-07-13T03:04:13;14.50;99.90
7155;DHT22;3619;53.784;10.440;2023-07-13T03:06:45;14.50;99.90
7155;DHT22;3619;53.784;10.440;2023-07-13T03:09:12;14.50;99.90
7155;DHT22;3619;53.784;10.440;2023-07-13T03:11:39;14.50;99.90
7155;DHT22;3619;53.784;10.440;2023-07-13T03:14:06;14.50;99.90
7155;DHT22;3619;53.784;10.440;2023-07-13T03:16:33;14.50;99.90
7155;DHT22;3619;53.784;10.440;2023-07-13T03:19:00;14.60;99.90
7155;DHT22;3619;53.784;10.440;2023-07-13T03:21:29;14.50;99.90
7155;DHT22;3619;53.784;10.440;2023-07-13T03:23:56;14.60;99.90
7155;DHT22;3619;53.784;10.440;2023-07-13T03:26:23;14.60;99.90
7155;DHT22;3619;53.784;10.440;2023-07-13T03:28:50;14.60;99.90
7155;DHT22;3619;53.784;10.440;2023-07-13T03:31:18;14.60;99.90
7155;DHT22;3619;53.784;10.440;2023-07-13T03:33:45;14.60;99.90
7155;DHT22;3619;53.784;10.440;2023-07-13T03:36:16;14.60;99.90
7155;DHT22;3619;53.784;10.440;2023-07-13T03:38:46;14.60;99.90
7155;DHT22;3619;53.784;10.440;2023-07-13T03:41:14;14.60;99.90
7155;DHT22;3619;53.784;10.440;2023-07-13T03:43:41;14.70;99.90
7155;DHT22;3619;53.784;10.440;2023-07-13T03:46:07;14.70;99.90
7155;DHT22;3619;53.784;10.440;2023-07-13T03:48:34;14.70;99.90
7155;DHT22;3619;53.784;10.440;2023-07-13T03:51:01;14.80;99.90
7155;DHT22;3619;53.784;10.440;2023-07-13T03:53:28;14.80;99.90
7155;DHT22;3619;53.784;10.440;2023-07-13T03:55:56;14.80;99.90
7155;DHT22;3619;53.784;10.440;2023-07-13T03:58:26;14.90;99.90
7155;DHT22;3619;53.784;10.440;2023-07-13T04:00:54;14.80;99.90
7155;DHT22;3619;53.784;10.440;2023-07-13T04:03:21;14.90;99.90
7155;DHT22;3619;53.784;10.440;2023-07-13T04:05:48;14.90;99.90
7155;DHT22;3619;53.784;10.440;2023-07-13T04:08:15;15.00;99.90
7155;DHT22;3619;53.784;10.440;2023-07-13T04:10:42;15.00;99.90
7155;DHT22;3619;53.784;10.440;2023-07-13T04:13:10;15.00;99.90
7155;DHT22;3619;53.784;10.440;2023-07-13T04:15:39;15.00;99.90
7155;DHT22;3619;53.784;10.440;2023-07-13T04:18:06;15.00;99.90
7155;DHT22;3619;53.784;10.440;2023-07-13T04:20:34;15.00;99.90
7155;DHT22;3619;53.784;10.440;2023-07-13T04:23:01;15.10;99.90
7155;DHT22;3619;53.784;10.440;2023-07-13T04:25:28;15.00;99.90
7155;DHT22;3619;53.784;10.440;2023-07-13T04:27:56;15.10;99.90
7155;DHT22;3619;53.784;10.440;2023-07-13T04:30:24;15.10;99.90
7155;DHT22;3619;53.784;10.440;2023-07-13T04:32:52;15.10;99.90
7155;DHT22;3619;53.784;10.440;2023-07-13T04:35:22;15.10;99.90
7155;DHT22;3619;53.784;10.440;2023-07-13T04:37:49;15.10;99.90
7155;DHT22;3619;53.784;10.440;2023-07-13T04:40:17;15.10;99.90
7155;DHT22;3619;53.784;10.440;2023-07-13T04:42:44;15.10;99.90
7155;DHT22;3619;53.784;10.440;2023-07-13T04:45:13;15.20;99.90
7155;DHT22;3619;53.784;10.440;2023-07-13T04:47:45;15.20;99.90
7155;DHT22;3619;53.784;10.440;2023-07-13T04:50:13;15.20;99.90
7155;DHT22;3619;53.784;10.440;2023-07-13T04:52:45;15.20;99.90
7155;DHT22;3619;53.784;10.440;2023-07-13T04:55:12;15.20;99.90
7155;DHT22;3619;53.784;10.440;2023-07-13T04:57:39;15.20;99.90
7155;DHT22;3619;53.784;10.440;2023-07-13T05:00:07;15.20;99.90
7155;DHT22;3619;53.784;10.440;2023-07-13T05:02:37;15.20;99.90
7155;DHT22;3619;53.784;10.440;2023-07-13T05:05:06;15.30;99.90
7155;DHT22;3619;53.784;10.440;2023-07-13T05:07:33;15.30;99.90
7155;DHT22;3619;53.784;10.440;2023-07-13T05:10:00;15.40;99.90
7155;DHT22;3619;53.784;10.440;2023-07-13T05:12:27;15.50;99.90
7155;DHT22;3619;53.784;10.440;2023-07-13T05:14:54;15.50;99.90
7155;DHT22;3619;53.784;10.440;2023-07-13T05:17:21;15.60;99.90
7155;DHT22;3619;53.784;10.440;2023-07-13T05:19:47;15.70;99.90
7155;DHT22;3619;53.784;10.440;2023-07-13T05:22:15;15.80;99.90
7155;DHT22;3619;53.784;10.440;2023-07-13T05:24:42;15.80;99.90
7155;DHT22;3619;53.784;10.440;2023-07-13T05:27:09;16.00;99.90
7155;DHT22;3619;53.784;10.440;2023-07-13T05:29:36;16.00;99.90
7155;DHT22;3619;53.784;10.440;2023-07-13T05:32:04;16.10;99.90
7155;DHT22;3619;53.784;10.440;2023-07-13T05:34:31;16.20;99.90
7155;DHT22;3619;53.784;10.440;2023-07-13T05:36:58;16.30;99.90
7155;DHT22;3619;53.784;10.440;2023-07-13T05:39:27;16.50;99.90
7155;DHT22;3619;53.784;10.440;2023-07-13T05:41:54;16.50;99.90
7155;DHT22;3619;53.784;10.440;2023-07-13T05:44:21;16.60;99.90
7155;DHT22;3619;53.784;10.440;2023-07-13T05:46:48;16.60;99.90
7155;DHT22;3619;53.784;10.440;2023-07-13T05:49:14;16.70;99.90
7155;DHT22;3619;53.784;10.440;2023-07-13T05:51:41;16.70;99.90
7155;DHT22;3619;53.784;10.440;2023-07-13T05:54:08;16.70;99.90
7155;DHT22;3619;53.784;10.440;2023-07-13T05:56:36;16.80;99.90
7155;DHT22;3619;53.784;10.440;2023-07-13T05:59:03;16.90;99.90
7155;DHT22;3619;53.784;10.440;2023-07-13T06:01:32;17.00;99.90
7155;DHT22;3619;53.784;10.440;2023-07-13T06:03:59;17.00;99.90
7155;DHT22;3619;53.784;10.440;2023-07-13T06:06:26;17.00;99.90
7155;DHT22;3619;53.784;10.440;2023-07-13T06:08:53;17.10;99.90
7155;DHT22;3619;53.784;10.440;2023-07-13T06:11:21;17.40;99.90
7155;DHT22;3619;53.784;10.440;2023-07-13T06:13:50;17.40;99.90
7155;DHT22;3619;53.784;10.440;2023-07-13T06:16:17;17.60;99.90
7155;DHT22;3619;53.784;10.440;2023-07-13T06:18:44;17.60;99.90
7155;DHT22;3619;53.784;10.440;2023-07-13T06:21:14;17.50;99.90
7155;DHT22;3619;53.784;10.440;2023-07-13T06:23:40;17.50;99.90
7155;DHT22;3619;53.784;10.440;2023-07-13T06:26:08;17.40;99.90
7155;DHT22;3619;53.784;10.440;2023-07-13T06:28:37;17.30;99.90
7155;DHT22;3619;53.784;10.440;2023-07-13T06:31:07;17.40;99.90
7155;DHT22;3619;53.784;10.440;2023-07-13T06:33:35;17.40;99.90
7155;DHT22;3619;53.784;10.440;2023-07-13T06:36:03;17.40;99.90
7155;DHT22;3619;53.784;10.440;2023-07-13T06:38:30;17.40;99.90
7155;DHT22;3619;53.784;10.440;2023-07-13T06:40:57;17.40;99.90
7155;DHT22;3619;53.784;10.440;2023-07-13T06:43:24;17.30;99.90
7155;DHT22;3619;53.784;10.440;2023-07-13T06:45:51;17.40;99.90
7155;DHT22;3619;53.784;10.440;2023-07-13T06:48:22;17.40;99.90
7155;DHT22;3619;53.784;10.440;2023-07-13T06:50:49;17.40;99.90
7155;DHT22;3619;53.784;10.440;2023-07-13T06:53:18;17.40;99.90
7155;DHT22;3619;53.784;10.440;2023-07-13T06:55:45;17.50;99.90
7155;DHT22;3619;53.784;10.440;2023-07-13T06:58:14;17.50;99.90
7155;DHT22;3619;53.784;10.440;2023-07-13T07:00:41;17.60;99.90
7155;DHT22;3619;53.784;10.440;2023-07-13T07:03:08;17.60;99.90
7155;DHT22;3619;53.784;10.440;2023-07-13T07:05:36;17.50;99.90
7155;DHT22;3619;53.784;10.440;2023-07-13T07:08:03;17.40;99.90
7155;DHT22;3619;53.784;10.440;2023-07-13T07:10:31;17.40;99.90
7155;DHT22;3619;53.784;10.440;2023-07-13T07:12:58;17.30;99.90
7155;DHT22;3619;53.784;10.440;2023-07-13T07:15:25;17.30;99.90
7155;DHT22;3619;53.784;10.440;2023-07-13T07:17:52;17.40;99.90
7155;DHT22;3619;53.784;10.440;2023-07-13T07:20:19;17.60;99.90
7155;DHT22;3619;53.784;10.440;2023-07-13T07:22:48;17.70;99.90
7155;DHT22;3619;53.784;10.440;2023-07-13T07:25:15;17.90;99.90
7155;DHT22;3619;53.784;10.440;2023-07-13T07:27:42;17.90;99.90
7155;DHT22;3619;53.784;10.440;2023-07-13T07:30:10;17.80;99.90
7155;DHT22;3619;53.784;10.440;2023-07-13T07:32:36;17.90;99.90
7155;DHT22;3619;53.784;10.440;2023-07-13T07:35:04;17.90;99.90
7155;DHT22;3619;53.784;10.440;2023-07-13T07:37:30;18.00;99.90
7155;DHT22;3619;53.784;10.440;2023-07-13T07:39:59;18.10;99.90
7155;DHT22;3619;53.784;10.440;2023-07-13T07:42:25;18.20;99.90
7155;DHT22;3619;53.784;10.440;2023-07-13T07:44:52;18.40;99.90
7155;DHT22;3619;53.784;10.440;2023-07-13T07:47:19;18.50;99.90
7155;DHT22;3619;53.784;10.440;2023-07-13T07:49:46;18.50;99.90
7155;DHT22;3619;53.784;10.440;2023-07-13T07:52:14;18.60;99.90
7155;DHT22;3619;53.784;10.440;2023-07-13T07:54:41;18.60;99.90
7155;DHT22;3619;53.784;10.440;2023-07-13T07:57:09;18.60;99.90
7155;DHT22;3619;53.784;10.440;2023-07-13T07:59:36;18.60;99.90
7155;DHT22;3619;53.784;10.440;2023-07-13T08:02:04;18.60;99.90
7155;DHT22;3619;53.784;10.440;2023-07-13T08:04:31;18.60;99.90
7155;DHT22;3619;53.784;10.440;2023-07-13T08:06:57;18.70;99.90
7155;DHT22;3619;53.784;10.440;2023-07-13T08:09:24;18.80;99.90
7155;DHT22;3619;53.784;10.440;2023-07-13T08:11:51;19.10;99.90
7155;DHT22;3619;53.784;10.440;2023-07-13T08:14:21;19.60;99.90
7155;DHT22;3619;53.784;10.440;2023-07-13T08:16:48;19.70;99.90
7155;DHT22;3619;53.784;10.440;2023-07-13T08:19:14;19.60;99.90
7155;DHT22;3619;53.784;10.440;2023-07-13T08:21:41;19.70;99.90
7155;DHT22;3619;53.784;10.440;2023-07-13T08:24:09;20.00;99.90
7155;DHT22;3619;53.784;10.440;2023-07-13T08:26:35;20.20;99.90
7155;DHT22;3619;53.784;10.440;2023-07-13T08:29:02;20.30;99.90
7155;DHT22;3619;53.784;10.440;2023-07-13T08:31:30;20.20;99.90
7155;DHT22;3619;53.784;10.440;2023-07-13T08:33:57;19.90;99.90
7155;DHT22;3619;53.784;10.440;2023-07-13T08:36:25;19.80;99.90
7155;DHT22;3619;53.784;10.440;2023-07-13T08:38:52;19.80;99.90
7155;DHT22;3619;53.784;10.440;2023-07-13T08:41:20;19.80;99.90
7155;DHT22;3619;53.784;10.440;2023-07-13T08:43:51;19.80;99.90
7155;DHT22;3619;53.784;10.440;2023-07-13T08:46:21;19.90;99.90
7155;DHT22;3619;53.784;10.440;2023-07-13T08:48:53;20.00;99.90
7155;DHT22;3619;53.784;10.440;2023-07-13T08:51:32;20.00;99.90
7155;DHT22;3619;53.784;10.440;2023-07-13T08:54:03;20.10;99.90
7155;DHT22;3619;53.784;10.440;2023-07-13T08:56:31;20.00;99.90
7155;DHT22;3619;53.784;10.440;2023-07-13T08:59:02;19.90;99.90
7155;DHT22;3619;53.784;10.440;2023-07-13T09:01:48;20.10;99.90
7155;DHT22;3619;53.784;10.440;2023-07-13T09:04:22;20.00;99.90
7155;DHT22;3619;53.784;10.440;2023-07-13T09:06:59;20.00;99.90
7155;DHT22;3619;53.784;10.440;2023-07-13T09:09:37;20.20;99.90
7155;DHT22;3619;53.784;10.440;2023-07-13T09:12:15;20.30;99.90
7155;DHT22;3619;53.784;10.440;2023-07-13T09:14:47;20.70;99.90
7155;DHT22;3619;53.784;10.440;2023-07-13T09:17:17;20.70;99.90
7155;DHT22;3619;53.784;10.440;2023-07-13T09:19:48;20.50;99.90
7155;DHT22;3619;53.784;10.440;2023-07-13T09:22:20;20.40;99.90
7155;DHT22;3619;53.784;10.440;2023-07-13T09:24:53;20.00;99.90
7155;DHT22;3619;53.784;10.440;2023-07-13T09:27:27;20.10;99.90
7155;DHT22;3619;53.784;10.440;2023-07-13T09:30:02;20.20;99.90
7155;DHT22;3619;53.784;10.440;2023-07-13T09:32:31;20.20;99.90
7155;DHT22;3619;53.784;10.440;2023-07-13T09:35:00;20.20;99.90
7155;DHT22;3619;53.784;10.440;2023-07-13T09:37:31;20.40;99.90
7155;DHT22;3619;53.784;10.440;2023-07-13T09:40:01;20.30;99.90
7155;DHT22;3619;53.784;10.440;2023-07-13T09:42:31;20.20;99.90
7155;DHT22;3619;53.784;10.440;2023-07-13T09:45:00;20.20;99.90
7155;DHT22;3619;53.784;10.440;2023-07-13T09:47:30;20.50;99.90
7155;DHT22;3619;53.784;10.440;2023-07-13T09:50:01;20.70;99.90
7155;DHT22;3619;53.784;10.440;2023-07-13T09:52:40;20.80;99.90
7155;DHT22;3619;53.784;10.440;2023-07-13T09:55:24;21.10;99.90
7155;DHT22;3619;53.784;10.440;2023-07-13T09:57:51;21.30;99.90
7155;DHT22;3619;53.784;10.440;2023-07-13T10:00:25;21.10;99.90
7155;DHT22;3619;53.784;10.440;2023-07-13T10:03:02;21.20;99.90
7155;DHT22;3619;53.784;10.440;2023-07-13T10:05:39;21.00;99.90
7155;DHT22;3619;53.784;10.440;2023-07-13T10:08:16;20.70;99.90
7155;DHT22;3619;53.784;10.440;2023-07-13T10:10:44;20.40;99.90
7155;DHT22;3619;53.784;10.440;2023-07-13T10:13:34;20.30;99.90
7155;DHT22;3619;53.784;10.440;2023-07-13T10:16:02;20.70;99.90
7155;DHT22;3619;53.784;10.440;2023-07-13T10:18:38;21.20;99.90
7155;DHT22;3619;53.784;10.440;2023-07-13T10:21:13;21.60;99.90
7155;DHT22;3619;53.784;10.440;2023-07-13T10:23:40;21.50;99.90
7155;DHT22;3619;53.784;10.440;2023-07-13T10:26:15;21.70;99.90
7155;DHT22;3619;53.784;10.440;2023-07-13T10:28:45;21.70;99.90
7155;DHT22;3619;53.784;10.440;2023-07-13T10:31:15;21.50;99.90
7155;DHT22;3619;53.784;10.440;2023-07-13T10:33:42;21.20;99.90
7155;DHT22;3619;53.784;10.440;2023-07-13T10:36:16;20.90;99.90
7155;DHT22;3619;53.784;10.440;2023-07-13T10:38:47;20.90;99.90
7155;DHT22;3619;53.784;10.440;2023-07-13T10:41:19;20.90;99.90
7155;DHT22;3619;53.784;10.440;2023-07-13T10:43:49;20.90;99.90
7155;DHT22;3619;53.784;10.440;2023-07-13T10:46:19;20.90;99.90
7155;DHT22;3619;53.784;10.440;2023-07-13T10:48:56;21.20;99.90
7155;DHT22;3619;53.784;10.440;2023-07-13T10:51:26;21.50;99.90
7155;DHT22;3619;53.784;10.440;2023-07-13T10:54:20;21.60;99.90
7155;DHT22;3619;53.784;10.440;2023-07-13T10:56:53;22.00;99.90
7155;DHT22;3619;53.784;10.440;2023-07-13T10:59:34;21.80;99.90
7155;DHT22;3619;53.784;10.440;2023-07-13T11:02:11;21.90;99.90
7155;DHT22;3619;53.784;10.440;2023-07-13T11:04:43;22.00;99.90
7155;DHT22;3619;53.784;10.440;2023-07-13T11:07:20;21.70;99.90
7155;DHT22;3619;53.784;10.440;2023-07-13T11:09:52;21.60;99.90
7155;DHT22;3619;53.784;10.440;2023-07-13T11:12:50;21.40;99.90
7155;DHT22;3619;53.784;10.440;2023-07-13T11:15:30;21.10;99.90
7155;DHT22;3619;53.784;10.440;2023-07-13T11:18:12;21.00;99.90
7155;DHT22;3619;53.784;10.440;2023-07-13T11:20:48;20.30;99.90
7155;DHT22;3619;53.784;10.440;2023-07-13T11:23:30;19.90;99.90
7155;DHT22;3619;53.784;10.440;2023-07-13T11:25:58;19.70;99.90
7155;DHT22;3619;53.784;10.440;2023-07-13T11:28:27;19.50;99.90
7155;DHT22;3619;53.784;10.440;2023-07-13T11:31:16;19.20;99.90
7155;DHT22;3619;53.784;10.440;2023-07-13T11:33:59;19.00;99.90
7155;DHT22;3619;53.784;10.440;2023-07-13T11:36:31;18.80;99.90
7155;DHT22;3619;53.784;10.440;2023-07-13T11:39:14;18.70;99.90
7155;DHT22;3619;53.784;10.440;2023-07-13T11:41:45;18.60;99.90
7155;DHT22;3619;53.784;10.440;2023-07-13T11:44:14;18.40;99.90
7155;DHT22;3619;53.784;10.440;2023-07-13T11:46:45;18.10;99.90
7155;DHT22;3619;53.784;10.440;2023-07-13T11:49:16;17.90;99.90
7155;DHT22;3619;53.784;10.440;2023-07-13T11:51:44;17.70;99.90
7155;DHT22;3619;53.784;10.440;2023-07-13T11:54:28;17.60;99.90
7155;DHT22;3619;53.784;10.440;2023-07-13T11:57:23;17.60;99.90
7155;DHT22;3619;53.784;10.440;2023-07-13T11:59:51;17.70;99.90
7155;DHT22;3619;53.784;10.440;2023-07-13T12:02:29;18.20;99.90
7155;DHT22;3619;53.784;10.440;2023-07-13T12:04:56;18.50;99.90
7155;DHT22;3619;53.784;10.440;2023-07-13T12:07:28;18.60;99.90
7155;DHT22;3619;53.784;10.440;2023-07-13T12:10:10;18.70;99.90
7155;DHT22;3619;53.784;10.440;2023-07-13T12:12:48;18.60;99.90
7155;DHT22;3619;53.784;10.440;2023-07-13T12:15:22;18.40;99.90
7155;DHT22;3619;53.784;10.440;2023-07-13T12:17:50;18.40;99.90
7155;DHT22;3619;53.784;10.440;2023-07-13T12:20:23;18.40;99.90
7155;DHT22;3619;53.784;10.440;2023-07-13T12:22:52;18.50;99.90
7155;DHT22;3619;53.784;10.440;2023-07-13T12:25:22;18.80;99.90
7155;DHT22;3619;53.784;10.440;2023-07-13T12:27:50;19.20;99.90
7155;DHT22;3619;53.784;10.440;2023-07-13T12:30:25;19.80;99.90
7155;DHT22;3619;53.784;10.440;2023-07-13T12:33:05;20.10;99.90
7155;DHT22;3619;53.784;10.440;2023-07-13T12:35:47;20.30;99.90
7155;DHT22;3619;53.784;10.440;2023-07-13T12:38:16;20.20;99.90
7155;DHT22;3619;53.784;10.440;2023-07-13T12:40:44;19.30;99.90
7155;DHT22;3619;53.784;10.440;2023-07-13T12:43:16;18.20;99.90
7155;DHT22;3619;53.784;10.440;2023-07-13T12:45:56;17.50;99.90
7155;DHT22;3619;53.784;10.440;2023-07-13T12:48:23;16.80;99.90
7155;DHT22;3619;53.784;10.440;2023-07-13T12:50:50;16.30;99.90
7155;DHT22;3619;53.784;10.440;2023-07-13T12:53:22;16.20;99.90
7155;DHT22;3619;53.784;10.440;2023-07-13T12:55:54;16.20;99.90
7155;DHT22;3619;53.784;10.440;2023-07-13T12:58:27;16.20;99.90
7155;DHT22;3619;53.784;10.440;2023-07-13T13:00:55;16.20;99.90
7155;DHT22;3619;53.784;10.440;2023-07-13T13:03:27;16.10;99.90
7155;DHT22;3619;53.784;10.440;2023-07-13T13:05:58;15.90;99.90
7155;DHT22;3619;53.784;10.440;2023-07-13T13:08:25;15.70;99.90
7155;DHT22;3619;53.784;10.440;2023-07-13T13:10:54;15.60;99.90
7155;DHT22;3619;53.784;10.440;2023-07-13T13:13:20;15.70;99.90
7155;DHT22;3619;53.784;10.440;2023-07-13T13:15:49;15.60;99.90
7155;DHT22;3619;53.784;10.440;2023-07-13T13:18:17;15.60;99.90
7155;DHT22;3619;53.784;10.440;2023-07-13T13:20:45;15.70;99.90
7155;DHT22;3619;53.784;10.440;2023-07-13T13:23:13;15.80;99.90
7155;DHT22;3619;53.784;10.440;2023-07-13T13:25:43;15.90;99.90
7155;DHT22;3619;53.784;10.440;2023-07-13T13:28:16;16.10;99.90
7155;DHT22;3619;53.784;10.440;2023-07-13T13:30:45;16.30;99.90
7155;DHT22;3619;53.784;10.440;2023-07-13T13:33:14;16.50;99.90
7155;DHT22;3619;53.784;10.440;2023-07-13T13:35:41;16.50;99.90
7155;DHT22;3619;53.784;10.440;2023-07-13T13:38:12;16.60;99.90
7155;DHT22;3619;53.784;10.440;2023-07-13T13:40:42;16.60;99.90
7155;DHT22;3619;53.784;10.440;2023-07-13T13:43:20;16.60;99.90
7155;DHT22;3619;53.784;10.440;2023-07-13T13:48:32;16.60;99.90
7155;DHT22;3619;53.784;10.440;2023-07-13T13:51:01;16.60;99.90
7155;DHT22;3619;53.784;10.440;2023-07-13T13:53:28;16.60;99.90
7155;DHT22;3619;53.784;10.440;2023-07-13T13:55:58;16.70;99.90
7155;DHT22;3619;53.784;10.440;2023-07-13T13:58:26;16.80;99.90
7155;DHT22;3619;53.784;10.440;2023-07-13T14:00:56;16.90;99.90
7155;DHT22;3619;53.784;10.440;2023-07-13T14:03:23;17.00;99.90
7155;DHT22;3619;53.784;10.440;2023-07-13T14:05:51;17.00;99.90
7155;DHT22;3619;53.784;10.440;2023-07-13T14:08:19;17.10;99.90
7155;DHT22;3619;53.784;10.440;2023-07-13T14:10:49;17.20;99.90
7155;DHT22;3619;53.784;10.440;2023-07-13T14:13:21;17.30;99.90
7155;DHT22;3619;53.784;10.440;2023-07-13T14:15:53;17.30;99.90
7155;DHT22;3619;53.784;10.440;2023-07-13T14:18:21;17.40;99.90
7155;DHT22;3619;53.784;10.440;2023-07-13T14:20:49;17.50;99.90
7155;DHT22;3619;53.784;10.440;2023-07-13T14:23:17;17.60;99.90
7155;DHT22;3619;53.784;10.440;2023-07-13T14:25:45;17.80;99.90
7155;DHT22;3619;53.784;10.440;2023-07-13T14:28:20;17.80;99.90
7155;DHT22;3619;53.784;10.440;2023-07-13T14:30:49;17.90;99.90
7155;DHT22;3619;53.784;10.440;2023-07-13T14:33:19;17.90;99.90
7155;DHT22;3619;53.784;10.440;2023-07-13T14:41:26;17.80;99.90
7155;DHT22;3619;53.784;10.440;2023-07-13T14:44:28;17.80;99.90
7155;DHT22;3619;53.784;10.440;2023-07-13T14:48:05;17.90;99.90
7155;DHT22;3619;53.784;10.440;2023-07-13T14:51:15;17.90;99.90
7155;DHT22;3619;53.784;10.440;2023-07-13T14:54:13;17.80;99.90
7155;DHT22;3619;53.784;10.440;2023-07-13T15:03:55;18.00;99.90
7155;DHT22;3619;53.784;10.440;2023-07-13T15:07:07;18.00;99.90
7155;DHT22;3619;53.784;10.440;2023-07-13T15:09:51;18.00;99.90
7155;DHT22;3619;53.784;10.440;2023-07-13T15:12:31;18.10;99.90
7155;DHT22;3619;53.784;10.440;2023-07-13T15:14:58;18.10;99.90
7155;DHT22;3619;53.784;10.440;2023-07-13T15:17:31;18.00;99.90
7155;DHT22;3619;53.784;10.440;2023-07-13T15:19:59;18.00;99.90
7155;DHT22;3619;53.784;10.440;2023-07-13T15:22:28;18.00;99.90
7155;DHT22;3619;53.784;10.440;2023-07-13T15:24:55;18.10;99.90
7155;DHT22;3619;53.784;10.440;2023-07-13T15:27:22;18.10;99.90
7155;DHT22;3619;53.784;10.440;2023-07-13T15:29:49;18.20;99.90
7155;DHT22;3619;53.784;10.440;2023-07-13T15:32:17;18.30;99.90
7155;DHT22;3619;53.784;10.440;2023-07-13T15:34:45;18.40;99.90
7155;DHT22;3619;53.784;10.440;2023-07-13T15:37:13;18.40;99.90
7155;DHT22;3619;53.784;10.440;2023-07-13T15:39:42;18.60;99.90
7155;DHT22;3619;53.784;10.440;2023-07-13T15:42:13;18.90;99.90
7155;DHT22;3619;53.784;10.440;2023-07-13T15:44:41;19.10;99.90
7155;DHT22;3619;53.784;10.440;2023-07-13T15:47:10;19.20;99.90
7155;DHT22;3619;53.784;10.440;2023-07-13T15:49:38;19.30;99.90
7155;DHT22;3619;53.784;10.440;2023-07-13T15:52:08;19.20;99.90
7155;DHT22;3619;53.784;10.440;2023-07-13T15:54:38;19.20;99.90
7155;DHT22;3619;53.784;10.440;2023-07-13T15:57:09;19.10;99.90
7155;DHT22;3619;53.784;10.440;2023-07-13T15:59:37;19.00;99.90
7155;DHT22;3619;53.784;10.440;2023-07-13T16:02:14;19.10;99.90
7155;DHT22;3619;53.784;10.440;2023-07-13T16:04:44;19.40;99.90
7155;DHT22;3619;53.784;10.440;2023-07-13T16:07:11;19.60;99.90
7155;DHT22;3619;53.784;10.440;2023-07-13T16:09:39;19.70;99.90
7155;DHT22;3619;53.784;10.440;2023-07-13T16:12:11;19.50;99.90
7155;DHT22;3619;53.784;10.440;2023-07-13T16:14:38;19.60;99.90
7155;DHT22;3619;53.784;10.440;2023-07-13T16:17:07;19.70;99.90
7155;DHT22;3619;53.784;10.440;2023-07-13T16:19:35;19.80;99.90